createdAt,value
2022-12-29T00:18:21.656Z,50.0
2022-12-29T00:38:21.686Z,50.1
2022-12-29T00:58:21.733Z,50.1
2022-12-29T01:18:21.662Z,50.1
2022-12-29T01:58:21.476Z,50.2
2022-12-29T02:18:21.558Z,50.3
2022-12-29T02:38:21.491Z,50.3
2022-12-29T02:58:21.469Z,50.4
2022-12-29T03:18:21.544Z,50.4
2022-12-29T03:38:21.344Z,50.6
2022-12-29T03:58:21.345Z,50.6
2022-12-29T04:18:21.524Z,50.6
2022-12-29T04:38:21.382Z,50.3
2022-12-29T04:58:21.228Z,50.2
2022-12-29T05:18:21.198Z,50.0
2022-12-29T05:38:21.302Z,50.0
2022-12-29T05:58:21.136Z,49.9
2022-12-29T06:18:21.126Z,49.9
2022-12-29T06:38:21.138Z,49.9
2022-12-29T06:58:21.245Z,49.8
2022-12-29T07:18:21.179Z,49.8
2022-12-29T07:38:21.250Z,49.8
2022-12-29T07:58:20.993Z,49.8
2022-12-29T08:18:21.024Z,49.8
2022-12-29T08:38:21.167Z,49.8
2022-12-29T08:58:21.045Z,49.7
2022-12-29T09:18:20.929Z,49.9
2022-12-29T09:38:20.981Z,50.0
2022-12-29T09:58:21.055Z,49.9
2022-12-29T10:18:20.948Z,49.8
2022-12-29T10:38:20.806Z,49.6
2022-12-29T10:58:20.794Z,49.8
2022-12-29T11:18:20.724Z,49.9
2022-12-29T11:38:20.693Z,49.9
2022-12-29T11:58:20.722Z,49.9
2022-12-29T12:18:20.655Z,49.9
2022-12-29T12:38:20.650Z,49.8
2022-12-29T12:58:20.649Z,49.8
2022-12-29T13:18:20.586Z,49.8
2022-12-29T13:38:20.572Z,50.1
2022-12-29T13:58:20.618Z,50.2
2022-12-29T14:18:20.517Z,50.0
2022-12-29T14:38:20.505Z,49.9
2022-12-29T14:58:20.470Z,49.9
2022-12-29T15:18:20.469Z,49.9
2022-12-29T15:38:20.410Z,49.9
2022-12-29T15:58:20.378Z,49.9
2022-12-29T16:18:20.390Z,49.9
2022-12-29T16:38:20.353Z,49.9
2022-12-29T16:58:20.347Z,49.9
2022-12-29T17:18:20.310Z,49.9
2022-12-29T17:38:20.295Z,49.9
2022-12-29T17:58:20.241Z,49.9
2022-12-29T18:18:20.206Z,49.9
2022-12-29T18:38:20.228Z,49.9
2022-12-29T18:58:20.190Z,49.9
2022-12-29T19:18:20.151Z,49.9
2022-12-29T19:38:20.145Z,50.0
2022-12-29T19:58:20.109Z,50.1
2022-12-29T20:18:20.088Z,50.2
2022-12-29T20:38:20.026Z,50.3
2022-12-29T20:58:20.006Z,50.3
2022-12-29T21:18:20.149Z,50.4
2022-12-29T21:38:19.986Z,50.4
2022-12-29T21:58:19.954Z,50.4
2022-12-29T22:18:19.896Z,50.4
2022-12-29T22:38:19.882Z,50.4
2022-12-29T22:58:19.879Z,50.5
2022-12-29T23:18:19.839Z,50.6
2022-12-29T23:38:19.803Z,50.7
2022-12-29T23:58:19.790Z,50.7
